createdAt,value
2019-03-29T00:01:42.281Z,14.40
2019-03-29T00:04:10.752Z,15.03
2019-03-29T00:06:39.298Z,15.77
2019-03-29T00:09:08.327Z,15.03
2019-03-29T00:11:36.939Z,15.17
2019-03-29T00:14:05.470Z,16.00
2019-03-29T00:16:33.907Z,16.53
2019-03-29T00:19:03.978Z,14.30
2019-03-29T00:21:32.559Z,15.80
2019-03-29T00:24:06.577Z,15.40
2019-03-29T00:26:31.301Z,16.23
2019-03-29T00:28:59.832Z,16.90
2019-03-29T00:31:28.577Z,16.60
2019-03-29T00:33:58.096Z,17.70
2019-03-29T00:36:26.536Z,16.63
2019-03-29T00:38:55.067Z,15.70
2019-03-29T00:41:23.516Z,15.57
2019-03-29T00:43:52.031Z,16.70
2019-03-29T00:46:20.505Z,15.63
2019-03-29T00:48:48.958Z,16.00
2019-03-29T00:51:17.485Z,17.23
2019-03-29T00:53:45.938Z,16.00
2019-03-29T00:56:14.660Z,16.10
2019-03-29T00:58:43.107Z,16.40
2019-03-29T01:01:11.739Z,17.23
2019-03-29T01:03:40.215Z,17.07
2019-03-29T01:06:08.748Z,16.10
2019-03-29T01:08:38.073Z,18.03
2019-03-29T01:11:06.774Z,17.30
2019-03-29T01:13:35.375Z,17.20
2019-03-29T01:16:03.999Z,16.93
2019-03-29T01:18:32.452Z,17.03
2019-03-29T01:21:01.012Z,17.37
2019-03-29T01:23:29.563Z,15.97
2019-03-29T01:25:58.107Z,17.37
2019-03-29T01:28:26.556Z,17.33
2019-03-29T01:30:55.034Z,17.03
2019-03-29T01:33:24.312Z,16.87
2019-03-29T01:35:53.551Z,15.10
2019-03-29T01:38:24.230Z,17.13
2019-03-29T01:40:52.352Z,15.47
2019-03-29T01:43:20.806Z,15.83
2019-03-29T01:45:49.514Z,15.47
2019-03-29T01:48:17.972Z,15.50
2019-03-29T01:50:46.515Z,16.53
2019-03-29T01:53:14.955Z,17.07
2019-03-29T01:55:43.484Z,15.90
2019-03-29T01:58:11.958Z,17.23
2019-03-29T02:00:40.508Z,16.73
2019-03-29T02:03:08.952Z,17.40
2019-03-29T02:05:37.513Z,17.27
2019-03-29T02:08:05.956Z,16.07
2019-03-29T02:10:34.563Z,18.43
2019-03-29T02:13:03.096Z,16.80
2019-03-29T02:15:31.659Z,16.93
2019-03-29T02:18:00.112Z,16.80
2019-03-29T02:20:28.663Z,16.93
2019-03-29T02:22:57.171Z,15.13
2019-03-29T02:25:25.642Z,17.20
2019-03-29T02:27:54.103Z,16.27
2019-03-29T02:30:22.721Z,15.03
2019-03-29T02:32:52.655Z,17.73
2019-03-29T02:35:21.573Z,14.77
2019-03-29T02:37:50.074Z,15.30
2019-03-29T02:40:18.620Z,16.13
2019-03-29T02:42:47.120Z,14.50
2019-03-29T02:45:15.583Z,16.47
2019-03-29T02:47:44.098Z,16.27
2019-03-29T02:50:12.791Z,15.27
2019-03-29T02:52:41.398Z,15.30
2019-03-29T02:55:10.266Z,16.17
2019-03-29T02:57:38.779Z,17.40
2019-03-29T03:00:10.081Z,16.07
2019-03-29T03:02:38.776Z,16.73
2019-03-29T03:05:08.707Z,16.53
2019-03-29T03:07:37.197Z,16.73
2019-03-29T03:10:08.476Z,17.10
2019-03-29T03:12:37.053Z,18.60
2019-03-29T03:15:08.140Z,17.57
2019-03-29T03:17:36.923Z,17.07
2019-03-29T03:20:14.705Z,17.57
2019-03-29T03:22:41.101Z,19.57
2019-03-29T03:25:10.306Z,17.60
2019-03-29T03:27:38.752Z,18.33
2019-03-29T03:30:10.065Z,17.67
2019-03-29T03:32:38.710Z,18.43
2019-03-29T03:35:09.188Z,18.17
2019-03-29T03:37:37.722Z,19.00
2019-03-29T03:40:07.892Z,18.40
2019-03-29T03:42:36.481Z,19.57
2019-03-29T03:45:08.097Z,18.43
2019-03-29T03:47:38.221Z,18.17
2019-03-29T03:50:09.382Z,18.60
2019-03-29T03:52:38.018Z,19.10
2019-03-29T03:55:07.674Z,18.30
2019-03-29T03:57:37.815Z,18.73
2019-03-29T04:00:09.393Z,17.73
2019-03-29T04:02:37.822Z,18.23
2019-03-29T04:05:07.386Z,17.33
2019-03-29T04:07:35.901Z,19.20
2019-03-29T04:10:06.672Z,19.60
2019-03-29T04:12:35.167Z,17.77
2019-03-29T04:15:04.075Z,18.23
2019-03-29T04:17:32.523Z,21.50
2019-03-29T04:20:01.060Z,21.90
2019-03-29T04:22:29.580Z,18.63
2019-03-29T04:24:58.101Z,19.63
2019-03-29T04:27:26.534Z,19.37
2019-03-29T04:29:54.964Z,20.07
2019-03-29T04:32:23.483Z,18.27
2019-03-29T04:34:51.924Z,19.80
2019-03-29T04:37:20.387Z,19.20
2019-03-29T04:40:05.809Z,19.53
2019-03-29T04:42:19.069Z,20.17
2019-03-29T04:44:47.506Z,18.97
2019-03-29T04:47:15.982Z,18.97
2019-03-29T04:49:44.410Z,22.60
2019-03-29T04:52:12.862Z,20.70
2019-03-29T04:54:41.299Z,18.90
2019-03-29T04:57:09.758Z,14.13
2019-03-29T04:59:38.205Z,19.80
2019-03-29T05:02:06.667Z,19.40
2019-03-29T05:04:35.159Z,20.03
2019-03-29T05:07:03.620Z,19.07
2019-03-29T05:09:32.067Z,20.10
2019-03-29T05:12:00.723Z,20.50
2019-03-29T05:14:29.232Z,20.87
2019-03-29T05:16:57.714Z,21.07
2019-03-29T05:19:26.168Z,20.73
2019-03-29T05:21:54.690Z,20.23
2019-03-29T05:24:23.120Z,20.07
2019-03-29T05:26:51.583Z,21.97
2019-03-29T05:29:20.026Z,21.83
2019-03-29T05:31:48.486Z,22.80
2019-03-29T05:34:16.905Z,22.20
2019-03-29T05:36:45.370Z,21.97
2019-03-29T05:39:13.800Z,21.90
2019-03-29T05:41:42.272Z,21.30
2019-03-29T05:44:10.698Z,21.33
2019-03-29T05:46:39.158Z,20.33
2019-03-29T05:49:07.600Z,22.00
2019-03-29T05:51:36.083Z,25.47
2019-03-29T05:54:04.588Z,23.23
2019-03-29T05:56:33.057Z,21.97
2019-03-29T05:59:01.576Z,22.27
2019-03-29T06:01:30.118Z,21.33
2019-03-29T06:03:58.610Z,21.83
2019-03-29T06:06:27.098Z,21.10
2019-03-29T06:08:55.935Z,21.90
2019-03-29T06:11:24.464Z,20.77
2019-03-29T06:13:52.944Z,21.97
2019-03-29T06:16:21.409Z,23.97
2019-03-29T06:18:49.940Z,21.97
2019-03-29T06:21:18.491Z,22.67
2019-03-29T06:23:46.969Z,22.10
2019-03-29T06:26:15.418Z,21.47
2019-03-29T06:28:43.877Z,22.07
2019-03-29T06:31:12.490Z,22.47
2019-03-29T06:33:44.394Z,21.10
2019-03-29T06:36:12.145Z,20.57
2019-03-29T06:38:42.165Z,20.33
2019-03-29T06:41:10.620Z,21.00
2019-03-29T06:43:39.081Z,19.77
2019-03-29T06:46:07.600Z,19.77
2019-03-29T06:48:36.216Z,21.20
2019-03-29T06:51:04.971Z,20.13
2019-03-29T06:53:33.849Z,21.50
2019-03-29T06:56:02.350Z,20.67
2019-03-29T06:58:30.892Z,20.43
2019-03-29T07:00:59.389Z,20.10
2019-03-29T07:03:27.861Z,21.37
2019-03-29T07:05:56.362Z,20.63
2019-03-29T07:08:24.855Z,20.37
2019-03-29T07:10:53.298Z,19.17
2019-03-29T07:13:21.759Z,20.17
2019-03-29T07:15:50.201Z,21.17
2019-03-29T07:18:18.738Z,20.03
2019-03-29T07:20:47.435Z,19.10
2019-03-29T07:23:15.918Z,19.27
2019-03-29T07:25:44.372Z,18.83
2019-03-29T07:28:12.915Z,17.57
2019-03-29T07:30:41.349Z,17.50
2019-03-29T07:33:09.810Z,18.57
2019-03-29T07:35:38.314Z,18.47
2019-03-29T07:38:06.774Z,17.73
2019-03-29T07:40:35.365Z,17.43
2019-03-29T07:43:03.883Z,20.10
2019-03-29T07:45:32.339Z,18.50
2019-03-29T07:48:03.435Z,18.77
2019-03-29T07:50:31.990Z,17.73
2019-03-29T07:53:00.545Z,19.57
2019-03-29T07:55:29.051Z,18.30
2019-03-29T07:57:57.528Z,18.67
2019-03-29T08:00:25.970Z,20.93
2019-03-29T08:02:55.276Z,19.17
2019-03-29T08:05:24.266Z,19.10
2019-03-29T08:07:52.719Z,20.13
2019-03-29T08:10:27.564Z,18.63
2019-03-29T08:12:51.375Z,20.10
2019-03-29T08:15:19.875Z,18.80
2019-03-29T08:17:48.311Z,19.07
2019-03-29T08:20:38.189Z,17.87
2019-03-29T08:22:46.929Z,19.90
2019-03-29T08:25:15.410Z,18.43
2019-03-29T08:27:43.847Z,19.53
2019-03-29T08:30:12.827Z,19.83
2019-03-29T08:32:41.261Z,19.97
2019-03-29T08:35:10.002Z,19.40
2019-03-29T08:37:38.528Z,18.13
2019-03-29T08:40:07.734Z,18.30
2019-03-29T08:42:36.379Z,17.97
2019-03-29T08:45:06.278Z,17.83
2019-03-29T08:47:34.718Z,17.83
2019-03-29T08:50:03.967Z,19.90
2019-03-29T08:52:32.406Z,25.93
2019-03-29T08:55:00.875Z,16.50
2019-03-29T08:57:29.313Z,16.37
2019-03-29T08:59:57.783Z,17.80
2019-03-29T09:02:26.298Z,18.40
2019-03-29T09:04:54.777Z,16.60
2019-03-29T09:07:23.635Z,19.83
2019-03-29T09:09:52.104Z,15.87
2019-03-29T09:12:20.578Z,18.57
2019-03-29T09:14:49.043Z,17.47
2019-03-29T09:17:17.510Z,16.73
2019-03-29T09:19:45.992Z,16.70
2019-03-29T09:22:14.671Z,16.53
2019-03-29T09:24:43.362Z,16.80
2019-03-29T09:27:11.846Z,16.57
2019-03-29T09:29:40.373Z,17.47
2019-03-29T09:32:09.188Z,16.30
2019-03-29T09:34:37.646Z,17.10
2019-03-29T09:37:06.130Z,17.03
2019-03-29T09:39:34.583Z,15.63
2019-03-29T09:42:03.210Z,16.33
2019-03-29T09:44:31.651Z,14.80
2019-03-29T09:47:00.123Z,14.43
2019-03-29T09:49:28.579Z,12.00
2019-03-29T09:51:57.034Z,11.40
2019-03-29T09:54:25.562Z,5.30
2019-03-29T09:56:54.024Z,11.27
2019-03-29T09:59:23.226Z,11.13
2019-03-29T10:01:54.013Z,10.40
2019-03-29T10:04:22.117Z,10.63
2019-03-29T10:06:50.643Z,11.03
2019-03-29T10:09:19.087Z,10.20
2019-03-29T10:11:47.534Z,8.83
2019-03-29T10:14:15.976Z,10.67
2019-03-29T10:16:44.454Z,11.47
2019-03-29T10:19:12.978Z,11.00
2019-03-29T10:21:41.519Z,12.30
2019-03-29T10:24:09.984Z,11.93
2019-03-29T10:26:38.698Z,14.23
2019-03-29T10:29:07.152Z,12.03
2019-03-29T10:31:35.647Z,12.70
2019-03-29T10:34:04.098Z,12.17
2019-03-29T10:36:32.575Z,10.93
2019-03-29T10:39:01.010Z,9.77
2019-03-29T10:41:29.493Z,10.73
2019-03-29T10:43:58.044Z,11.37
2019-03-29T10:46:26.527Z,9.47
2019-03-29T10:48:55.015Z,10.47
2019-03-29T10:51:23.451Z,10.33
2019-03-29T10:53:51.921Z,9.77
2019-03-29T10:56:33.397Z,8.27
2019-03-29T10:58:50.806Z,8.83
2019-03-29T11:01:19.292Z,9.57
2019-03-29T11:03:47.751Z,9.97
2019-03-29T11:06:16.269Z,9.57
2019-03-29T11:08:44.805Z,9.83
2019-03-29T11:11:13.305Z,10.60
2019-03-29T11:13:41.747Z,11.90
2019-03-29T11:16:10.270Z,10.07
2019-03-29T11:18:38.892Z,11.73
2019-03-29T11:21:07.822Z,9.20
2019-03-29T11:23:36.286Z,9.83
2019-03-29T11:26:24.220Z,10.57
2019-03-29T11:28:52.673Z,9.70
2019-03-29T11:31:21.106Z,8.93
2019-03-29T11:33:49.570Z,10.27
2019-03-29T11:36:18.202Z,9.47
2019-03-29T11:38:46.698Z,8.93
2019-03-29T11:41:15.133Z,9.77
2019-03-29T11:43:43.588Z,10.00
2019-03-29T11:46:12.012Z,9.60
2019-03-29T11:48:40.541Z,9.57
2019-03-29T11:51:19.203Z,8.23
2019-03-29T11:53:39.471Z,8.10
2019-03-29T11:56:08.066Z,8.40
2019-03-29T11:58:36.525Z,8.37
2019-03-29T12:01:05.618Z,7.80
2019-03-29T12:03:34.386Z,9.17
2019-03-29T12:06:02.820Z,9.73
2019-03-29T12:08:31.270Z,7.80
2019-03-29T12:10:59.802Z,9.67
2019-03-29T12:13:40.367Z,8.73
2019-03-29T12:15:58.407Z,9.57
2019-03-29T12:18:26.862Z,8.70
2019-03-29T12:20:55.297Z,10.17
2019-03-29T12:23:23.752Z,9.17
2019-03-29T12:25:52.181Z,10.03
2019-03-29T12:28:20.634Z,10.40
2019-03-29T12:30:49.234Z,9.17
2019-03-29T12:33:17.691Z,8.77
2019-03-29T12:35:46.334Z,7.90
2019-03-29T12:38:14.825Z,8.73
2019-03-29T12:40:45.174Z,9.17
2019-03-29T12:43:13.512Z,8.77
2019-03-29T12:45:41.964Z,9.03
2019-03-29T12:48:10.421Z,10.97
2019-03-29T12:50:38.942Z,8.13
2019-03-29T12:53:07.381Z,9.00
2019-03-29T12:55:35.835Z,8.60
2019-03-29T12:58:04.419Z,7.30
2019-03-29T13:00:33.225Z,7.67
2019-03-29T13:03:01.742Z,8.40
2019-03-29T13:05:30.276Z,10.40
2019-03-29T13:07:58.708Z,9.00
2019-03-29T13:10:27.159Z,7.90
2019-03-29T13:12:55.611Z,7.93
2019-03-29T13:15:24.080Z,8.80
2019-03-29T13:17:52.514Z,8.03
2019-03-29T13:20:23.966Z,9.10
2019-03-29T13:22:52.456Z,9.33
2019-03-29T13:25:20.920Z,8.27
2019-03-29T13:27:49.346Z,8.60
2019-03-29T13:30:18.311Z,9.17
2019-03-29T13:32:46.769Z,8.97
2019-03-29T13:35:15.300Z,7.83
2019-03-29T13:37:43.744Z,8.20
2019-03-29T13:40:13.049Z,8.33
2019-03-29T13:42:41.559Z,7.93
2019-03-29T13:45:11.482Z,8.77
2019-03-29T13:47:39.921Z,9.73
2019-03-29T13:50:09.903Z,8.10
2019-03-29T13:52:38.518Z,8.27
2019-03-29T13:55:07.445Z,8.40
2019-03-29T13:57:35.885Z,8.50
2019-03-29T14:00:07.998Z,8.37
2019-03-29T14:02:36.427Z,8.97
2019-03-29T14:05:06.103Z,6.73
2019-03-29T14:07:34.560Z,8.20
2019-03-29T14:10:03.463Z,7.80
2019-03-29T14:12:31.926Z,7.67
2019-03-29T14:15:01.336Z,8.33
2019-03-29T14:17:30.511Z,7.63
2019-03-29T14:20:21.444Z,7.53
2019-03-29T14:22:50.103Z,9.27
2019-03-29T14:25:18.627Z,9.17
2019-03-29T14:27:47.099Z,9.27
2019-03-29T14:30:15.667Z,8.27
2019-03-29T14:32:44.235Z,8.30
2019-03-29T14:35:13.417Z,8.87
2019-03-29T14:37:41.947Z,8.40
2019-03-29T14:40:11.027Z,8.87
2019-03-29T14:42:39.506Z,9.73
2019-03-29T14:45:08.494Z,9.50
2019-03-29T14:47:43.557Z,8.80
2019-03-29T14:50:09.105Z,8.67
2019-03-29T14:52:37.586Z,9.30
2019-03-29T14:55:07.134Z,9.27
2019-03-29T14:57:35.646Z,9.10
2019-03-29T15:00:06.965Z,10.30
2019-03-29T15:02:35.495Z,10.77
2019-03-29T15:05:06.439Z,9.67
2019-03-29T15:07:35.439Z,10.43
2019-03-29T15:10:06.419Z,9.40
2019-03-29T15:12:34.879Z,8.10
2019-03-29T15:15:06.252Z,8.60
2019-03-29T15:17:35.619Z,9.10
2019-03-29T15:20:23.504Z,8.23
2019-03-29T15:22:52.033Z,9.03
2019-03-29T15:25:22.445Z,7.53
2019-03-29T15:27:50.677Z,7.50
2019-03-29T15:30:19.650Z,10.10
2019-03-29T15:32:48.288Z,8.50
2019-03-29T15:35:16.730Z,9.00
2019-03-29T15:37:47.829Z,7.77
2019-03-29T15:40:16.391Z,8.90
2019-03-29T15:42:44.854Z,9.70
2019-03-29T15:45:20.823Z,9.27
2019-03-29T15:47:44.873Z,8.03
2019-03-29T15:50:13.368Z,8.27
2019-03-29T15:52:41.837Z,8.77
2019-03-29T15:55:11.508Z,8.30
2019-03-29T15:57:40.157Z,8.60
2019-03-29T16:00:10.763Z,9.03
2019-03-29T16:02:39.199Z,8.43
2019-03-29T16:05:07.791Z,8.83
2019-03-29T16:07:36.215Z,8.50
2019-03-29T16:10:05.508Z,9.67
2019-03-29T16:12:34.010Z,8.53
2019-03-29T16:15:02.465Z,9.53
2019-03-29T16:17:30.893Z,8.57
2019-03-29T16:19:59.445Z,11.27
2019-03-29T16:22:27.909Z,10.70
2019-03-29T16:24:56.423Z,8.40
2019-03-29T16:27:25.285Z,10.27
2019-03-29T16:29:54.286Z,10.20
2019-03-29T16:32:22.903Z,9.57
2019-03-29T16:34:51.394Z,11.23
2019-03-29T16:37:19.899Z,10.30
2019-03-29T16:39:48.401Z,11.23
2019-03-29T16:42:16.891Z,10.83
2019-03-29T16:44:45.363Z,10.00
2019-03-29T16:47:13.808Z,10.97
2019-03-29T16:49:42.274Z,10.00
2019-03-29T16:52:10.772Z,10.87
2019-03-29T16:54:39.327Z,10.93
2019-03-29T16:57:07.850Z,10.93
2019-03-29T16:59:36.299Z,9.20
2019-03-29T17:02:04.811Z,10.37
2019-03-29T17:04:33.275Z,10.87
2019-03-29T17:07:01.718Z,10.00
2019-03-29T17:09:30.194Z,10.60
2019-03-29T17:11:58.636Z,10.37
2019-03-29T17:14:27.093Z,9.70
2019-03-29T17:16:55.528Z,9.50
2019-03-29T17:19:24.005Z,10.17
2019-03-29T17:21:52.520Z,11.10
2019-03-29T17:24:21.299Z,9.60
2019-03-29T17:26:49.767Z,11.23
2019-03-29T17:29:18.244Z,11.50
2019-03-29T17:31:46.795Z,10.30
2019-03-29T17:34:15.255Z,9.90
2019-03-29T17:36:43.794Z,10.40
2019-03-29T17:39:12.423Z,11.47
2019-03-29T17:41:40.988Z,10.87
2019-03-29T17:44:09.620Z,10.77
2019-03-29T17:46:38.120Z,11.90
2019-03-29T17:49:06.624Z,12.10
2019-03-29T17:51:35.094Z,12.20
2019-03-29T17:54:03.531Z,12.67
2019-03-29T17:56:31.990Z,12.07
2019-03-29T17:59:00.462Z,12.50
2019-03-29T18:01:29.004Z,13.73
2019-03-29T18:03:57.554Z,13.73
2019-03-29T18:06:26.023Z,15.17
2019-03-29T18:08:54.472Z,15.83
2019-03-29T18:11:24.105Z,14.57
2019-03-29T18:13:52.555Z,15.10
2019-03-29T18:16:30.559Z,13.17
2019-03-29T18:18:51.193Z,13.73
2019-03-29T18:21:19.651Z,14.43
2019-03-29T18:23:48.261Z,14.17
2019-03-29T18:26:16.857Z,13.17
2019-03-29T18:28:45.359Z,14.83
2019-03-29T18:31:13.827Z,14.17
2019-03-29T18:33:42.467Z,14.40
2019-03-29T18:36:11.191Z,14.13
2019-03-29T18:38:40.785Z,14.73
2019-03-29T18:41:09.225Z,15.20
2019-03-29T18:43:37.702Z,16.47
2019-03-29T18:46:06.147Z,16.33
2019-03-29T18:48:35.070Z,16.23
2019-03-29T18:51:04.141Z,15.90
2019-03-29T18:53:32.706Z,16.73
2019-03-29T18:56:01.145Z,15.60
2019-03-29T18:58:29.635Z,15.27
2019-03-29T19:00:58.162Z,15.23
2019-03-29T19:03:26.627Z,14.57
2019-03-29T19:05:55.330Z,15.83
2019-03-29T19:08:23.843Z,16.20
2019-03-29T19:10:52.291Z,15.13
2019-03-29T19:13:20.762Z,16.37
2019-03-29T19:15:49.350Z,19.03
2019-03-29T19:18:17.928Z,15.97
2019-03-29T19:20:46.498Z,14.33
2019-03-29T19:23:15.135Z,15.93
2019-03-29T19:25:43.556Z,15.57
2019-03-29T19:28:12.195Z,15.23
2019-03-29T19:30:40.646Z,14.13
2019-03-29T19:33:09.103Z,13.23
2019-03-29T19:35:37.537Z,13.57
2019-03-29T19:38:05.990Z,16.63
2019-03-29T19:40:34.454Z,14.50
2019-03-29T19:43:02.917Z,14.57
2019-03-29T19:45:34.190Z,14.30
2019-03-29T19:48:01.619Z,15.37
2019-03-29T19:50:30.052Z,16.03
2019-03-29T19:52:58.532Z,16.47
2019-03-29T19:55:27.071Z,16.60
2019-03-29T19:57:58.295Z,15.90
2019-03-29T20:00:38.220Z,15.53
2019-03-29T20:03:06.791Z,15.47
2019-03-29T20:05:35.349Z,16.70
2019-03-29T20:08:03.862Z,18.67
2019-03-29T20:10:32.328Z,20.27
2019-03-29T20:13:01.051Z,17.80
2019-03-29T20:15:29.516Z,17.83
2019-03-29T20:17:58.084Z,17.43
2019-03-29T20:20:26.894Z,17.37
2019-03-29T20:22:56.368Z,15.93
2019-03-29T20:25:25.366Z,15.03
2019-03-29T20:27:54.148Z,15.27
2019-03-29T20:30:22.749Z,15.97
2019-03-29T20:32:51.248Z,15.50
2019-03-29T20:35:19.707Z,15.40
2019-03-29T20:37:48.328Z,15.27
2019-03-29T20:40:16.984Z,4.50
2019-03-29T20:42:45.415Z,4.20
2019-03-29T20:45:14.473Z,4.60
2019-03-29T20:47:42.921Z,4.40
2019-03-29T20:50:11.712Z,6.17
2019-03-29T20:52:40.153Z,14.90
2019-03-29T20:55:08.633Z,14.53
2019-03-29T20:57:37.087Z,14.77
2019-03-29T21:00:10.679Z,8.00
2019-03-29T21:02:39.295Z,16.47
2019-03-29T21:05:07.827Z,16.67
2019-03-29T21:07:36.257Z,17.73
2019-03-29T21:10:07.133Z,13.83
2019-03-29T21:12:35.571Z,17.20
2019-03-29T21:15:05.482Z,22.03
2019-03-29T21:17:34.278Z,20.63
2019-03-29T21:20:02.937Z,20.10
2019-03-29T21:22:31.439Z,16.73
2019-03-29T21:24:59.890Z,17.37
2019-03-29T21:27:28.419Z,18.60
2019-03-29T21:29:56.870Z,17.87
2019-03-29T21:32:25.338Z,15.07
2019-03-29T21:34:53.762Z,16.03
2019-03-29T21:37:22.214Z,16.13
2019-03-29T21:39:50.657Z,16.00
2019-03-29T21:42:19.199Z,16.00
2019-03-29T21:44:47.666Z,15.47
2019-03-29T21:47:16.159Z,16.60
2019-03-29T21:49:44.716Z,15.67
2019-03-29T21:52:13.275Z,16.07
2019-03-29T21:54:42.779Z,14.20
2019-03-29T21:57:11.226Z,15.87
2019-03-29T21:59:39.676Z,15.33
2019-03-29T22:02:08.148Z,15.87
2019-03-29T22:04:36.651Z,16.37
2019-03-29T22:07:05.203Z,15.17
2019-03-29T22:09:37.141Z,15.33
2019-03-29T22:12:04.036Z,15.77
2019-03-29T22:14:32.472Z,15.97
2019-03-29T22:17:00.930Z,16.43
2019-03-29T22:19:29.408Z,16.23
2019-03-29T22:21:57.963Z,15.80
2019-03-29T22:24:26.425Z,15.03
2019-03-29T22:26:55.014Z,15.57
2019-03-29T22:29:24.404Z,16.17
2019-03-29T22:31:52.885Z,14.67
2019-03-29T22:34:21.321Z,15.13
2019-03-29T22:36:49.813Z,16.27
2019-03-29T22:39:20.918Z,15.80
2019-03-29T22:41:49.396Z,16.63
2019-03-29T22:44:17.852Z,15.70
2019-03-29T22:46:46.361Z,15.53
2019-03-29T22:49:14.816Z,15.97
2019-03-29T22:51:43.254Z,13.97
2019-03-29T22:54:11.715Z,14.33
2019-03-29T22:56:40.237Z,14.80
2019-03-29T22:59:08.730Z,14.03
2019-03-29T23:01:40.342Z,15.27
2019-03-29T23:04:08.796Z,15.73
2019-03-29T23:06:37.246Z,14.63
2019-03-29T23:09:07.153Z,16.13
2019-03-29T23:11:35.673Z,16.83
2019-03-29T23:14:04.475Z,16.20
2019-03-29T23:16:32.956Z,7.13
2019-03-29T23:19:06.627Z,14.60
2019-03-29T23:21:31.625Z,14.30
2019-03-29T23:24:00.114Z,15.07
2019-03-29T23:26:28.630Z,15.20
2019-03-29T23:28:57.172Z,15.50
2019-03-29T23:31:25.637Z,14.90
2019-03-29T23:33:54.142Z,15.53
2019-03-29T23:36:22.567Z,17.27
2019-03-29T23:38:51.036Z,15.63
2019-03-29T23:41:19.493Z,16.50
2019-03-29T23:43:47.977Z,15.83
2019-03-29T23:46:16.474Z,14.53
2019-03-29T23:48:44.945Z,14.97
2019-03-29T23:51:14.223Z,15.27
2019-03-29T23:53:42.686Z,19.60
2019-03-29T23:56:11.126Z,16.70
2019-03-29T23:58:39.614Z,15.80
